createdAt,value
2022-10-23T00:00:38.074Z,42.25
2022-10-23T00:03:46.262Z,41.93
2022-10-23T00:06:53.578Z,41.96
2022-10-23T00:09:59.227Z,42.12
2022-10-23T00:13:04.874Z,42.52
2022-10-23T00:16:13.918Z,43.76
2022-10-23T00:19:19.605Z,41.93
2022-10-23T00:22:28.566Z,40.19
2022-10-23T00:25:36.566Z,39.90
2022-10-23T00:28:42.158Z,42.03
2022-10-23T00:31:50.355Z,43.99
2022-10-23T00:34:56.577Z,43.24
2022-10-23T00:38:02.343Z,43.01
2022-10-23T00:41:11.306Z,40.67
2022-10-23T00:45:16.650Z,43.19
2022-10-23T00:48:25.849Z,42.15
2022-10-23T00:51:39.213Z,41.22
2022-10-23T00:54:46.851Z,39.26
2022-10-23T00:57:54.790Z,38.11
2022-10-23T01:01:00.572Z,38.80
2022-10-23T01:04:12.065Z,39.21
2022-10-23T01:07:35.977Z,35.90
2022-10-23T01:10:55.441Z,35.42
2022-10-23T01:14:13.028Z,34.80
2022-10-23T01:17:32.725Z,34.94
2022-10-23T01:20:53.135Z,35.81
2022-10-23T01:24:29.366Z,36.42
2022-10-23T01:27:45.395Z,39.49
2022-10-23T01:30:52.646Z,42.39
2022-10-23T01:34:09.523Z,42.73
2022-10-23T01:37:23.969Z,41.10
2022-10-23T01:40:40.459Z,40.92
2022-10-23T01:43:58.849Z,40.82
2022-10-23T01:47:14.126Z,40.55
2022-10-23T01:50:39.376Z,41.30
2022-10-23T01:53:51.057Z,40.02
2022-10-23T01:57:01.670Z,39.21
2022-10-23T02:00:17.154Z,40.82
2022-10-23T02:03:38.829Z,41.49
2022-10-23T02:06:44.951Z,42.79
2022-10-23T02:09:50.861Z,42.99
2022-10-23T02:13:08.942Z,43.86
2022-10-23T02:16:30.689Z,44.91
2022-10-23T02:19:53.498Z,45.53
2022-10-23T02:23:15.250Z,45.62
2022-10-23T02:26:28.081Z,45.67
2022-10-23T02:29:41.826Z,44.70
2022-10-23T02:32:57.605Z,44.08
2022-10-23T02:36:03.770Z,45.02
2022-10-23T02:39:09.898Z,44.30
2022-10-23T02:42:26.866Z,44.32
2022-10-23T02:45:43.039Z,44.65
2022-10-23T02:49:09.806Z,45.01
2022-10-23T02:52:26.590Z,43.42
2022-10-23T02:55:52.721Z,42.71
2022-10-23T02:59:14.145Z,43.55
2022-10-23T03:06:02.211Z,41.12
2022-10-23T03:09:12.043Z,43.79
2022-10-23T03:12:30.223Z,50.54
2022-10-23T03:15:35.975Z,49.35
2022-10-23T03:18:41.843Z,44.39
2022-10-23T03:21:50.129Z,41.71
2022-10-23T03:24:59.491Z,41.56
2022-10-23T03:28:05.129Z,40.86
2022-10-23T03:31:12.854Z,41.25
2022-10-23T03:34:26.447Z,44.00
2022-10-23T03:37:35.142Z,44.45
2022-10-23T03:40:40.947Z,43.25
2022-10-23T03:43:46.738Z,42.61
2022-10-23T03:46:52.373Z,44.78
2022-10-23T03:49:59.028Z,45.64
2022-10-23T03:53:07.411Z,45.23
2022-10-23T03:56:13.304Z,47.34
2022-10-23T03:59:19.054Z,49.55
2022-10-23T04:02:24.877Z,51.89
2022-10-23T04:05:38.473Z,54.53
2022-10-23T04:08:50.414Z,55.19
2022-10-23T04:11:58.848Z,55.91
2022-10-23T04:15:08.141Z,57.13
2022-10-23T04:18:13.685Z,57.94
2022-10-23T04:21:19.569Z,59.73
2022-10-23T04:24:28.631Z,65.39
2022-10-23T04:27:35.137Z,57.03
2022-10-23T04:30:41.785Z,55.67
2022-10-23T04:33:51.114Z,52.21
2022-10-23T04:37:15.322Z,49.97
2022-10-23T04:40:23.517Z,48.89
2022-10-23T04:43:32.059Z,49.82
2022-10-23T04:46:37.643Z,49.56
2022-10-23T04:49:43.915Z,48.80
2022-10-23T04:53:09.823Z,47.29
2022-10-23T04:56:41.874Z,46.33
2022-10-23T04:59:52.399Z,45.71
2022-10-23T05:02:58.342Z,45.17
2022-10-23T05:06:10.329Z,46.23
2022-10-23T05:09:31.564Z,47.53
2022-10-23T05:13:06.683Z,49.03
2022-10-23T05:16:12.907Z,48.25
2022-10-23T05:19:28.045Z,48.12
2022-10-23T05:22:40.129Z,48.45
2022-10-23T05:25:49.204Z,48.86
2022-10-23T05:28:59.403Z,47.60
2022-10-23T05:32:18.856Z,46.47
2022-10-23T05:35:27.010Z,45.90
2022-10-23T05:38:38.730Z,43.93
2022-10-23T05:41:51.413Z,42.47
2022-10-23T05:45:04.033Z,42.57
2022-10-23T05:48:36.322Z,40.23
2022-10-23T05:51:53.412Z,37.94
2022-10-23T05:55:29.578Z,34.70
2022-10-23T05:58:46.274Z,33.14
2022-10-23T06:02:09.136Z,34.36
2022-10-23T06:05:29.499Z,39.59
2022-10-23T06:08:55.507Z,40.65
2022-10-23T06:12:01.887Z,46.97
2022-10-23T06:15:11.894Z,44.36
2022-10-23T06:18:43.074Z,41.05
2022-10-23T06:21:52.907Z,37.93
2022-10-23T06:25:09.536Z,39.10
2022-10-23T06:28:18.353Z,37.00
2022-10-23T06:31:28.040Z,37.95
2022-10-23T06:34:38.237Z,40.62
2022-10-23T06:37:46.909Z,40.36
2022-10-23T06:41:11.067Z,45.20
2022-10-23T06:44:17.319Z,39.55
2022-10-23T06:47:34.431Z,44.45
2022-10-23T06:51:02.452Z,44.19
2022-10-23T06:54:21.341Z,51.38
2022-10-23T06:57:27.035Z,41.47
2022-10-23T07:00:42.292Z,36.53
2022-10-23T07:03:52.338Z,33.91
2022-10-23T07:07:16.340Z,34.49
2022-10-23T07:10:36.230Z,30.22
2022-10-23T07:13:44.652Z,33.46
2022-10-23T07:16:56.028Z,36.55
2022-10-23T07:20:12.117Z,36.57
2022-10-23T07:23:20.636Z,35.97
2022-10-23T07:26:26.453Z,29.90
2022-10-23T07:29:32.446Z,29.73
2022-10-23T07:32:38.160Z,32.43
2022-10-23T07:36:13.161Z,30.49
2022-10-23T07:39:22.621Z,28.40
2022-10-23T07:42:30.842Z,28.66
2022-10-23T07:45:36.479Z,29.27
2022-10-23T07:48:50.643Z,30.40
2022-10-23T07:51:59.204Z,30.09
2022-10-23T07:55:20.677Z,28.27
2022-10-23T07:58:32.693Z,28.63
2022-10-23T08:01:55.706Z,29.15
2022-10-23T08:05:11.858Z,28.33
2022-10-23T08:08:28.208Z,27.59
2022-10-23T08:11:43.214Z,28.58
2022-10-23T08:14:53.590Z,28.17
2022-10-23T08:17:59.529Z,30.19
2022-10-23T08:21:21.478Z,31.20
2022-10-23T08:24:28.684Z,30.86
2022-10-23T08:27:37.506Z,32.37
2022-10-23T08:30:43.242Z,31.94
2022-10-23T08:36:56.257Z,29.04
2022-10-23T08:40:07.110Z,28.68
2022-10-23T08:44:10.456Z,31.17
2022-10-23T08:47:33.249Z,33.30
2022-10-23T08:51:18.483Z,31.83
2022-10-23T08:57:46.128Z,32.38
2022-10-23T09:00:56.201Z,32.61
2022-10-23T09:04:02.531Z,33.10
2022-10-23T09:07:26.681Z,34.13
2022-10-23T09:11:05.296Z,34.17
2022-10-23T09:14:52.007Z,37.39
2022-10-23T09:18:06.830Z,38.00
2022-10-23T09:21:13.402Z,35.04
2022-10-23T09:24:21.508Z,34.66
2022-10-23T09:27:27.721Z,33.74
2022-10-23T09:30:40.254Z,31.73
2022-10-23T09:33:59.867Z,35.43
2022-10-23T09:37:23.354Z,40.10
2022-10-23T09:40:41.939Z,32.91
2022-10-23T09:43:50.345Z,32.46
2022-10-23T09:47:12.293Z,30.13
2022-10-23T09:50:24.488Z,26.29
2022-10-23T09:53:40.747Z,29.28
2022-10-23T09:56:52.912Z,26.95
2022-10-23T10:00:11.030Z,23.26
2022-10-23T10:03:27.739Z,22.49
2022-10-23T10:06:48.998Z,20.56
2022-10-23T10:09:58.320Z,21.17
2022-10-23T10:13:34.068Z,18.35
2022-10-23T10:16:53.733Z,19.55
2022-10-23T10:20:26.940Z,18.61
2022-10-23T10:23:50.581Z,14.77
2022-10-23T10:27:17.512Z,14.83
2022-10-23T10:30:27.335Z,14.79
2022-10-23T10:33:50.749Z,14.55
2022-10-23T10:37:08.111Z,14.63
2022-10-23T10:40:31.233Z,15.80
2022-10-23T10:43:57.162Z,13.61
2022-10-23T10:47:20.949Z,13.82
2022-10-23T10:50:45.570Z,13.54
2022-10-23T10:54:35.921Z,12.16
2022-10-23T10:57:50.149Z,12.50
2022-10-23T11:01:13.478Z,13.55
2022-10-23T11:04:49.198Z,13.28
2022-10-23T11:08:05.152Z,12.29
2022-10-23T11:11:38.017Z,11.45
2022-10-23T11:14:53.570Z,11.18
2022-10-23T11:18:06.998Z,11.90
2022-10-23T11:21:34.604Z,10.97
2022-10-23T11:25:29.139Z,10.36
2022-10-23T11:29:08.520Z,11.14
2022-10-23T11:32:59.261Z,11.72
2022-10-23T11:36:16.745Z,11.68
2022-10-23T11:39:29.545Z,12.72
2022-10-23T11:42:52.658Z,13.14
2022-10-23T11:46:01.743Z,13.02
2022-10-23T11:49:24.300Z,12.81
2022-10-23T11:52:30.018Z,12.50
2022-10-23T11:55:38.470Z,11.70
2022-10-23T11:58:50.950Z,11.17
2022-10-23T12:02:04.141Z,10.99
2022-10-23T12:05:31.119Z,12.21
2022-10-23T12:08:54.783Z,10.75
2022-10-23T12:12:29.968Z,11.02
2022-10-23T12:15:41.371Z,11.85
2022-10-23T12:18:57.200Z,11.02
2022-10-23T12:22:07.308Z,11.18
2022-10-23T12:25:20.905Z,10.90
2022-10-23T12:28:41.256Z,11.16
2022-10-23T12:32:02.202Z,11.52
2022-10-23T12:35:52.584Z,10.60
2022-10-23T12:38:58.869Z,11.22
2022-10-23T12:42:05.208Z,11.87
2022-10-23T12:45:24.792Z,12.11
2022-10-23T12:48:30.349Z,11.15
2022-10-23T12:51:39.933Z,10.85
2022-10-23T12:54:45.457Z,10.85
2022-10-23T12:57:51.407Z,9.00
2022-10-23T13:01:00.283Z,8.95
2022-10-23T13:04:20.071Z,9.76
2022-10-23T13:07:34.608Z,9.88
2022-10-23T13:10:41.831Z,9.88
2022-10-23T13:13:50.184Z,9.86
2022-10-23T13:17:06.323Z,8.62
2022-10-23T13:20:35.255Z,9.07
2022-10-23T13:23:45.027Z,11.42
2022-10-23T13:26:51.248Z,10.99
2022-10-23T13:29:56.915Z,8.23
2022-10-23T13:33:09.290Z,7.62
2022-10-23T13:36:27.653Z,7.61
2022-10-23T13:39:37.798Z,8.35
2022-10-23T13:42:43.536Z,10.41
2022-10-23T13:45:49.261Z,9.07
2022-10-23T13:48:55.915Z,9.01
2022-10-23T13:52:01.600Z,8.98
2022-10-23T13:55:25.247Z,9.21
2022-10-23T13:58:31.142Z,9.80
2022-10-23T14:01:38.859Z,9.50
2022-10-23T14:04:44.509Z,8.68
2022-10-23T14:07:50.044Z,8.51
2022-10-23T14:10:58.207Z,9.19
2022-10-23T14:14:03.968Z,10.30
2022-10-23T14:17:09.589Z,11.65
2022-10-23T14:20:19.764Z,10.63
2022-10-23T14:23:25.684Z,9.70
2022-10-23T14:26:34.559Z,12.10
2022-10-23T14:29:40.137Z,12.94
2022-10-23T14:32:46.216Z,16.53
2022-10-23T14:35:53.522Z,12.61
2022-10-23T14:39:00.691Z,13.95
2022-10-23T14:42:09.084Z,15.55
2022-10-23T14:45:14.860Z,22.64
2022-10-23T14:48:20.580Z,18.06
2022-10-23T14:51:30.294Z,20.19
2022-10-23T14:54:36.574Z,23.87
2022-10-23T14:57:45.063Z,29.52
2022-10-23T15:01:01.709Z,30.20
2022-10-23T15:04:08.022Z,28.46
2022-10-23T15:07:13.646Z,26.82
2022-10-23T15:10:19.309Z,26.80
2022-10-23T15:13:27.540Z,26.12
2022-10-23T15:16:33.292Z,25.40
2022-10-23T15:19:39.678Z,27.62
2022-10-23T15:22:45.434Z,31.51
2022-10-23T15:25:59.090Z,38.25
2022-10-23T15:29:07.286Z,33.31
2022-10-23T15:32:13.977Z,28.39
2022-10-23T15:35:19.881Z,22.12
2022-10-23T15:38:26.417Z,24.91
2022-10-23T15:41:34.680Z,34.79
2022-10-23T15:44:44.052Z,35.85
2022-10-23T15:47:51.054Z,34.10
2022-10-23T15:50:59.328Z,35.96
2022-10-23T15:54:09.942Z,46.90
2022-10-23T15:57:15.503Z,73.87
2022-10-23T16:00:26.249Z,88.91
2022-10-23T16:03:31.971Z,76.72
2022-10-23T16:06:38.307Z,124.15
2022-10-23T16:09:44.001Z,111.68
2022-10-23T16:12:49.547Z,72.13
2022-10-23T16:15:57.795Z,83.64
2022-10-23T16:19:05.190Z,91.19
2022-10-23T16:22:11.352Z,108.83
2022-10-23T16:25:16.947Z,352.09
2022-10-23T16:28:22.643Z,474.24
2022-10-23T16:31:32.864Z,188.72
2022-10-23T16:34:38.618Z,191.58
2022-10-23T16:37:47.011Z,142.38
2022-10-23T16:40:57.692Z,138.02
2022-10-23T16:44:26.168Z,138.71
2022-10-23T16:47:39.483Z,114.88
2022-10-23T16:50:45.516Z,112.98
2022-10-23T16:53:52.250Z,110.17
2022-10-23T16:56:58.783Z,107.86
2022-10-23T17:00:04.439Z,102.56
2022-10-23T17:03:15.981Z,100.54
2022-10-23T17:06:26.008Z,91.87
2022-10-23T17:09:32.050Z,95.33
2022-10-23T17:12:39.413Z,91.60
2022-10-23T17:15:45.143Z,91.99
2022-10-23T17:18:53.440Z,90.22
2022-10-23T17:22:00.429Z,88.96
2022-10-23T17:25:06.686Z,92.95
2022-10-23T17:28:12.388Z,79.68
2022-10-23T17:31:21.941Z,90.46
2022-10-23T17:34:30.290Z,91.73
2022-10-23T17:37:36.112Z,92.72
2022-10-23T17:40:42.791Z,69.90
2022-10-23T17:43:48.778Z,72.45
2022-10-23T17:46:56.217Z,61.36
2022-10-23T17:50:04.369Z,75.43
2022-10-23T17:53:10.749Z,92.52
2022-10-23T17:56:20.159Z,93.63
2022-10-23T17:59:26.889Z,94.76
2022-10-23T18:02:32.745Z,81.52
2022-10-23T18:05:40.965Z,75.36
2022-10-23T18:08:47.666Z,99.00
2022-10-23T18:11:53.804Z,80.16
2022-10-23T18:15:01.058Z,111.27
2022-10-23T18:18:08.754Z,108.20
2022-10-23T18:21:18.923Z,119.70
2022-10-23T18:24:25.779Z,104.14
2022-10-23T18:27:31.367Z,105.16
2022-10-23T18:30:40.810Z,95.65
2022-10-23T18:33:46.999Z,92.12
2022-10-23T18:36:57.369Z,95.75
2022-10-23T18:40:03.061Z,91.24
2022-10-23T18:43:15.010Z,87.29
2022-10-23T18:46:25.899Z,76.71
2022-10-23T18:49:32.091Z,77.05
2022-10-23T18:52:40.390Z,66.59
2022-10-23T18:55:49.450Z,64.52
2022-10-23T18:58:57.740Z,73.49
2022-10-23T19:02:03.468Z,72.12
2022-10-23T19:05:11.646Z,70.09
2022-10-23T19:08:20.482Z,74.84
2022-10-23T19:11:30.467Z,72.27
2022-10-23T19:14:36.322Z,71.03
2022-10-23T19:17:42.394Z,74.51
2022-10-23T19:20:48.426Z,74.18
2022-10-23T19:24:00.077Z,76.12
2022-10-23T19:27:06.458Z,86.56
2022-10-23T19:30:16.297Z,100.82
2022-10-23T19:33:23.807Z,100.56
2022-10-23T19:36:29.598Z,97.68
2022-10-23T19:39:38.621Z,98.39
2022-10-23T19:42:46.057Z,108.66
2022-10-23T19:45:51.811Z,117.00
2022-10-23T19:48:57.573Z,101.27
2022-10-23T19:52:03.239Z,78.82
2022-10-23T19:55:12.689Z,66.35
2022-10-23T19:58:19.084Z,63.65
2022-10-23T20:01:28.488Z,57.81
2022-10-23T20:04:34.315Z,53.04
2022-10-23T20:07:40.456Z,52.27
2022-10-23T20:10:50.703Z,55.64
2022-10-23T20:13:56.748Z,58.64
2022-10-23T20:17:02.871Z,94.13
2022-10-23T20:20:09.885Z,112.00
2022-10-23T20:23:15.913Z,93.78
2022-10-23T20:26:25.201Z,81.13
2022-10-23T20:29:30.992Z,65.28
2022-10-23T20:32:37.353Z,57.08
2022-10-23T20:35:46.390Z,54.87
2022-10-23T20:38:52.641Z,54.45
2022-10-23T20:42:01.113Z,57.69
2022-10-23T20:45:13.986Z,88.63
2022-10-23T20:48:22.027Z,87.55
2022-10-23T20:51:29.213Z,86.69
2022-10-23T20:54:36.448Z,98.24
2022-10-23T20:57:44.939Z,103.40
2022-10-23T21:03:59.691Z,100.03
2022-10-23T21:07:12.344Z,117.38
2022-10-23T21:10:19.987Z,119.34
2022-10-23T21:13:36.663Z,107.98
2022-10-23T21:16:46.707Z,94.71
2022-10-23T21:19:52.350Z,87.54
2022-10-23T21:22:57.917Z,81.18
2022-10-23T21:26:07.610Z,82.23
2022-10-23T21:29:19.039Z,88.09
2022-10-23T21:32:30.339Z,106.62
2022-10-23T21:35:37.819Z,111.11
2022-10-23T21:38:43.794Z,106.38
2022-10-23T21:41:49.639Z,102.58
2022-10-23T21:44:57.898Z,101.41
2022-10-23T21:48:10.480Z,99.45
2022-10-23T21:51:26.755Z,96.02
2022-10-23T21:54:32.510Z,90.63
2022-10-23T21:57:38.251Z,88.64
2022-10-23T22:00:46.716Z,83.16
2022-10-23T22:03:52.682Z,81.02
2022-10-23T22:06:58.330Z,83.39
2022-10-23T22:10:16.502Z,81.20
2022-10-23T22:13:26.370Z,82.48
2022-10-23T22:16:34.879Z,85.19
2022-10-23T22:19:40.521Z,92.49
2022-10-23T22:22:46.146Z,94.82
2022-10-23T22:25:51.789Z,95.85
2022-10-23T22:29:00.917Z,98.56
2022-10-23T22:32:09.215Z,102.67
2022-10-23T22:35:14.899Z,107.12
2022-10-23T22:38:20.567Z,111.27
2022-10-23T22:41:27.231Z,106.33
2022-10-23T22:44:33.249Z,105.55
2022-10-23T22:47:41.428Z,103.99
2022-10-23T22:50:49.625Z,102.97
2022-10-23T22:53:56.039Z,102.18
2022-10-23T22:57:01.786Z,98.56
2022-10-23T23:00:10.130Z,96.49
2022-10-23T23:03:18.596Z,94.25
2022-10-23T23:06:25.511Z,90.07
2022-10-23T23:09:31.254Z,86.65
2022-10-23T23:12:37.209Z,85.66
2022-10-23T23:15:44.469Z,84.47
2022-10-23T23:18:53.699Z,83.71
2022-10-23T23:22:01.004Z,81.25
2022-10-23T23:25:07.058Z,81.45
2022-10-23T23:28:15.669Z,81.75
2022-10-23T23:31:24.591Z,81.83
2022-10-23T23:34:32.840Z,85.04
2022-10-23T23:37:38.422Z,85.99
2022-10-23T23:40:44.197Z,86.05
2022-10-23T23:43:49.983Z,86.66
2022-10-23T23:46:56.040Z,83.92
2022-10-23T23:50:04.305Z,79.53
2022-10-23T23:53:09.896Z,77.97
2022-10-23T23:56:16.012Z,76.24
2022-10-23T23:59:21.643Z,74.51
